sensor_id;sensor_type;location;lat;lon;timestamp;pressure;altitude;pressure_sealevel;temperature;humidity
23303;BME280;11820;48.738;9.092;2022-12-07T00:01:44;96304.25;;;3.58;nan
23303;BME280;11820;48.738;9.092;2022-12-07T00:04:12;96304.59;;;3.63;nan
23303;BME280;11820;48.738;9.092;2022-12-07T00:06:43;96308.28;;;3.68;nan
23303;BME280;11820;48.738;9.092;2022-12-07T00:09:18;96297.50;;;3.74;nan
23303;BME280;11820;48.738;9.092;2022-12-07T00:11:44;96292.59;;;3.63;nan
23303;BME280;11820;48.738;9.092;2022-12-07T00:14:15;96301.09;;;3.64;nan
23303;BME280;11820;48.738;9.092;2022-12-07T00:16:41;96297.38;;;3.58;nan
23303;BME280;11820;48.738;9.092;2022-12-07T00:19:08;96293.09;;;3.41;nan
23303;BME280;11820;48.738;9.092;2022-12-07T00:21:35;96296.72;;;3.56;nan
23303;BME280;11820;48.738;9.092;2022-12-07T00:24:02;96299.94;;;3.58;nan
23303;BME280;11820;48.738;9.092;2022-12-07T00:26:30;96295.78;;;3.57;nan
23303;BME280;11820;48.738;9.092;2022-12-07T00:29:01;96293.88;;;3.59;nan
23303;BME280;11820;48.738;9.092;2022-12-07T00:31:29;96293.56;;;3.62;nan
23303;BME280;11820;48.738;9.092;2022-12-07T00:33:57;96298.06;;;3.68;nan
23303;BME280;11820;48.738;9.092;2022-12-07T00:36:23;96291.72;;;3.72;nan
23303;BME280;11820;48.738;9.092;2022-12-07T00:38:49;96299.50;;;3.63;nan
23303;BME280;11820;48.738;9.092;2022-12-07T00:41:17;96290.06;;;3.63;nan
23303;BME280;11820;48.738;9.092;2022-12-07T00:43:44;96289.44;;;3.69;nan
23303;BME280;11820;48.738;9.092;2022-12-07T00:46:10;96288.31;;;3.64;nan
23303;BME280;11820;48.738;9.092;2022-12-07T00:48:36;96289.66;;;3.50;nan
23303;BME280;11820;48.738;9.092;2022-12-07T00:51:02;96290.66;;;3.57;nan
23303;BME280;11820;48.738;9.092;2022-12-07T00:53:28;96285.97;;;3.53;nan
23303;BME280;11820;48.738;9.092;2022-12-07T00:55:53;96290.00;;;3.55;nan
23303;BME280;11820;48.738;9.092;2022-12-07T00:58:19;96291.31;;;3.59;nan
23303;BME280;11820;48.738;9.092;2022-12-07T01:00:45;96289.16;;;3.47;nan
23303;BME280;11820;48.738;9.092;2022-12-07T01:03:12;96300.09;;;3.39;nan
23303;BME280;11820;48.738;9.092;2022-12-07T01:05:38;96293.66;;;3.53;nan
23303;BME280;11820;48.738;9.092;2022-12-07T01:08:05;96299.88;;;3.50;nan
23303;BME280;11820;48.738;9.092;2022-12-07T01:10:30;96295.34;;;3.44;nan
23303;BME280;11820;48.738;9.092;2022-12-07T01:12:57;96294.59;;;3.52;nan
23303;BME280;11820;48.738;9.092;2022-12-07T01:15:23;96296.41;;;3.59;nan
23303;BME280;11820;48.738;9.092;2022-12-07T01:17:49;96303.44;;;3.57;nan
23303;BME280;11820;48.738;9.092;2022-12-07T01:20:14;96294.81;;;3.58;nan
23303;BME280;11820;48.738;9.092;2022-12-07T01:22:41;96292.56;;;3.55;nan
23303;BME280;11820;48.738;9.092;2022-12-07T01:25:07;96299.28;;;3.56;nan
23303;BME280;11820;48.738;9.092;2022-12-07T01:27:34;96292.91;;;3.60;nan
23303;BME280;11820;48.738;9.092;2022-12-07T01:30:00;96300.06;;;3.57;nan
23303;BME280;11820;48.738;9.092;2022-12-07T01:32:26;96300.88;;;3.57;nan
23303;BME280;11820;48.738;9.092;2022-12-07T01:34:51;96308.84;;;3.54;nan
23303;BME280;11820;48.738;9.092;2022-12-07T01:37:17;96318.56;;;3.51;nan
23303;BME280;11820;48.738;9.092;2022-12-07T01:39:42;96302.75;;;3.47;nan
23303;BME280;11820;48.738;9.092;2022-12-07T01:42:11;96316.16;;;3.49;nan
23303;BME280;11820;48.738;9.092;2022-12-07T01:47:40;96319.38;;;3.51;nan
23303;BME280;11820;48.738;9.092;2022-12-07T01:50:06;96311.41;;;3.54;nan
23303;BME280;11820;48.738;9.092;2022-12-07T01:52:33;96315.22;;;3.50;nan
23303;BME280;11820;48.738;9.092;2022-12-07T01:55:06;96313.22;;;3.62;nan
23303;BME280;11820;48.738;9.092;2022-12-07T01:57:34;96313.97;;;3.54;nan
23303;BME280;11820;48.738;9.092;2022-12-07T02:00:05;96309.38;;;3.58;nan
23303;BME280;11820;48.738;9.092;2022-12-07T02:02:33;96313.97;;;3.54;nan
23303;BME280;11820;48.738;9.092;2022-12-07T02:05:01;96309.16;;;3.51;nan
23303;BME280;11820;48.738;9.092;2022-12-07T02:07:28;96313.00;;;3.55;nan
23303;BME280;11820;48.738;9.092;2022-12-07T02:09:54;96317.81;;;3.58;nan
23303;BME280;11820;48.738;9.092;2022-12-07T02:12:20;96318.78;;;3.57;nan
23303;BME280;11820;48.738;9.092;2022-12-07T02:14:47;96312.06;;;3.56;nan
23303;BME280;11820;48.738;9.092;2022-12-07T02:17:19;96310.09;;;3.50;nan
23303;BME280;11820;48.738;9.092;2022-12-07T02:20:04;96317.69;;;3.42;nan
23303;BME280;11820;48.738;9.092;2022-12-07T02:22:54;96319.03;;;3.46;nan
23303;BME280;11820;48.738;9.092;2022-12-07T02:28:09;96299.06;;;3.50;nan
23303;BME280;11820;48.738;9.092;2022-12-07T02:30:42;96296.69;;;3.48;nan
23303;BME280;11820;48.738;9.092;2022-12-07T02:33:18;96309.91;;;3.44;nan
23303;BME280;11820;48.738;9.092;2022-12-07T02:35:59;96296.81;;;3.47;nan
23303;BME280;11820;48.738;9.092;2022-12-07T02:38:46;96301.41;;;3.43;nan
23303;BME280;11820;48.738;9.092;2022-12-07T02:41:34;96305.22;;;3.39;nan
23303;BME280;11820;48.738;9.092;2022-12-07T02:44:04;96299.53;;;3.45;nan
23303;BME280;11820;48.738;9.092;2022-12-07T02:46:34;96300.47;;;3.44;nan
23303;BME280;11820;48.738;9.092;2022-12-07T02:49:01;96308.88;;;3.37;nan
23303;BME280;11820;48.738;9.092;2022-12-07T02:51:30;96300.09;;;3.39;nan
23303;BME280;11820;48.738;9.092;2022-12-07T02:53:56;96297.91;;;3.44;nan
23303;BME280;11820;48.738;9.092;2022-12-07T03:01:40;96285.13;;;3.44;nan
23303;BME280;11820;48.738;9.092;2022-12-07T03:05:00;96287.59;;;3.54;nan
23303;BME280;11820;48.738;9.092;2022-12-07T03:10:36;96275.59;;;3.46;nan
23303;BME280;11820;48.738;9.092;2022-12-07T03:16:10;96279.09;;;3.45;nan
23303;BME280;11820;48.738;9.092;2022-12-07T03:18:46;96277.75;;;3.41;nan
23303;BME280;11820;48.738;9.092;2022-12-07T03:21:31;96274.25;;;3.42;nan
23303;BME280;11820;48.738;9.092;2022-12-07T03:24:00;96266.59;;;3.42;nan
23303;BME280;11820;48.738;9.092;2022-12-07T03:26:31;96272.00;;;3.39;nan
23303;BME280;11820;48.738;9.092;2022-12-07T03:29:04;96280.88;;;3.27;nan
23303;BME280;11820;48.738;9.092;2022-12-07T03:31:33;96279.97;;;3.36;nan
23303;BME280;11820;48.738;9.092;2022-12-07T03:34:17;96280.28;;;3.33;nan
23303;BME280;11820;48.738;9.092;2022-12-07T03:36:57;96272.91;;;3.30;nan
23303;BME280;11820;48.738;9.092;2022-12-07T03:39:45;96275.47;;;3.30;nan
23303;BME280;11820;48.738;9.092;2022-12-07T03:42:12;96274.81;;;3.28;nan
23303;BME280;11820;48.738;9.092;2022-12-07T03:44:37;96268.88;;;3.28;nan
23303;BME280;11820;48.738;9.092;2022-12-07T03:47:16;96273.25;;;3.35;nan
23303;BME280;11820;48.738;9.092;2022-12-07T03:49:51;96277.66;;;3.25;nan
23303;BME280;11820;48.738;9.092;2022-12-07T03:52:39;96281.59;;;3.20;nan
23303;BME280;11820;48.738;9.092;2022-12-07T03:55:25;96283.94;;;3.13;nan
23303;BME280;11820;48.738;9.092;2022-12-07T03:57:55;96280.31;;;3.16;nan
23303;BME280;11820;48.738;9.092;2022-12-07T04:00:22;96267.44;;;3.25;nan
23303;BME280;11820;48.738;9.092;2022-12-07T04:02:47;96270.06;;;3.33;nan
23303;BME280;11820;48.738;9.092;2022-12-07T04:05:13;96272.47;;;3.17;nan
23303;BME280;11820;48.738;9.092;2022-12-07T04:07:38;96280.13;;;3.17;nan
23303;BME280;11820;48.738;9.092;2022-12-07T04:10:04;96265.09;;;3.14;nan
23303;BME280;11820;48.738;9.092;2022-12-07T04:12:29;96270.22;;;3.14;nan
23303;BME280;11820;48.738;9.092;2022-12-07T04:14:55;96268.03;;;3.19;nan
23303;BME280;11820;48.738;9.092;2022-12-07T04:17:20;96267.97;;;3.12;nan
23303;BME280;11820;48.738;9.092;2022-12-07T04:19:45;96262.41;;;3.16;nan
23303;BME280;11820;48.738;9.092;2022-12-07T04:22:11;96266.41;;;3.18;nan
23303;BME280;11820;48.738;9.092;2022-12-07T04:24:36;96257.84;;;3.19;nan
23303;BME280;11820;48.738;9.092;2022-12-07T04:27:02;96258.75;;;3.18;nan
23303;BME280;11820;48.738;9.092;2022-12-07T04:29:27;96261.38;;;3.26;nan
23303;BME280;11820;48.738;9.092;2022-12-07T04:31:53;96272.84;;;3.22;nan
23303;BME280;11820;48.738;9.092;2022-12-07T04:34:19;96268.03;;;3.19;nan
23303;BME280;11820;48.738;9.092;2022-12-07T04:36:45;96261.19;;;3.03;nan
23303;BME280;11820;48.738;9.092;2022-12-07T04:39:28;96258.69;;;3.11;nan
23303;BME280;11820;48.738;9.092;2022-12-07T04:41:55;96259.56;;;3.19;nan
23303;BME280;11820;48.738;9.092;2022-12-07T04:44:21;96245.72;;;3.21;nan
23303;BME280;11820;48.738;9.092;2022-12-07T04:46:47;96245.19;;;3.18;nan
23303;BME280;11820;48.738;9.092;2022-12-07T04:49:14;96243.97;;;3.05;nan
23303;BME280;11820;48.738;9.092;2022-12-07T04:51:40;96244.88;;;2.96;nan
23303;BME280;11820;48.738;9.092;2022-12-07T04:54:06;96242.66;;;3.01;nan
23303;BME280;11820;48.738;9.092;2022-12-07T04:56:32;96241.47;;;3.13;nan
23303;BME280;11820;48.738;9.092;2022-12-07T04:58:59;96233.16;;;3.11;nan
23303;BME280;11820;48.738;9.092;2022-12-07T05:01:24;96221.22;;;3.11;nan
23303;BME280;11820;48.738;9.092;2022-12-07T05:03:50;96227.41;;;3.09;nan
23303;BME280;11820;48.738;9.092;2022-12-07T05:06:16;96218.66;;;3.11;nan
23303;BME280;11820;48.738;9.092;2022-12-07T05:08:41;96214.97;;;3.13;nan
23303;BME280;11820;48.738;9.092;2022-12-07T05:11:08;96222.47;;;3.07;nan
23303;BME280;11820;48.738;9.092;2022-12-07T05:13:35;96217.91;;;3.01;nan
23303;BME280;11820;48.738;9.092;2022-12-07T05:16:00;96224.63;;;3.02;nan
23303;BME280;11820;48.738;9.092;2022-12-07T05:18:26;96231.84;;;3.07;nan
23303;BME280;11820;48.738;9.092;2022-12-07T05:20:51;96231.22;;;3.05;nan
23303;BME280;11820;48.738;9.092;2022-12-07T05:23:17;96230.78;;;3.09;nan
23303;BME280;11820;48.738;9.092;2022-12-07T05:25:43;96228.22;;;3.09;nan
23303;BME280;11820;48.738;9.092;2022-12-07T05:28:08;96224.53;;;3.12;nan
23303;BME280;11820;48.738;9.092;2022-12-07T05:30:34;96225.16;;;3.06;nan
23303;BME280;11820;48.738;9.092;2022-12-07T05:32:59;96233.41;;;3.00;nan
23303;BME280;11820;48.738;9.092;2022-12-07T05:35:25;96231.38;;;2.86;nan
23303;BME280;11820;48.738;9.092;2022-12-07T05:37:50;96245.44;;;2.90;nan
23303;BME280;11820;48.738;9.092;2022-12-07T05:40:16;96242.53;;;2.85;nan
23303;BME280;11820;48.738;9.092;2022-12-07T05:42:42;96239.41;;;2.73;nan
23303;BME280;11820;48.738;9.092;2022-12-07T05:45:08;96245.09;;;2.67;nan
23303;BME280;11820;48.738;9.092;2022-12-07T05:47:34;96234.06;;;2.67;nan
23303;BME280;11820;48.738;9.092;2022-12-07T05:49:59;96244.06;;;2.60;nan
23303;BME280;11820;48.738;9.092;2022-12-07T05:52:24;96256.66;;;2.44;nan
23303;BME280;11820;48.738;9.092;2022-12-07T05:54:51;96258.03;;;2.39;nan
23303;BME280;11820;48.738;9.092;2022-12-07T05:57:16;96260.50;;;2.31;nan
23303;BME280;11820;48.738;9.092;2022-12-07T05:59:41;96255.78;;;2.36;nan
23303;BME280;11820;48.738;9.092;2022-12-07T06:02:09;96262.59;;;2.45;nan
23303;BME280;11820;48.738;9.092;2022-12-07T06:04:46;96269.03;;;2.22;nan
23303;BME280;11820;48.738;9.092;2022-12-07T06:07:13;96264.91;;;2.11;nan
23303;BME280;11820;48.738;9.092;2022-12-07T06:09:39;96262.03;;;2.24;nan
23303;BME280;11820;48.738;9.092;2022-12-07T06:12:05;96258.31;;;2.36;nan
23303;BME280;11820;48.738;9.092;2022-12-07T06:14:49;96259.78;;;2.38;nan
23303;BME280;11820;48.738;9.092;2022-12-07T06:17:15;96250.91;;;2.42;nan
23303;BME280;11820;48.738;9.092;2022-12-07T06:19:40;96259.16;;;2.54;nan
23303;BME280;11820;48.738;9.092;2022-12-07T06:22:06;96266.34;;;2.41;nan
23303;BME280;11820;48.738;9.092;2022-12-07T06:24:32;96262.38;;;2.56;nan
23303;BME280;11820;48.738;9.092;2022-12-07T06:26:58;96255.06;;;2.61;nan
23303;BME280;11820;48.738;9.092;2022-12-07T06:29:23;96261.47;;;2.65;nan
23303;BME280;11820;48.738;9.092;2022-12-07T06:31:49;96266.88;;;2.62;nan
23303;BME280;11820;48.738;9.092;2022-12-07T06:34:19;96271.41;;;2.68;nan
23303;BME280;11820;48.738;9.092;2022-12-07T06:36:45;96273.03;;;2.69;nan
23303;BME280;11820;48.738;9.092;2022-12-07T06:39:11;96271.91;;;2.71;nan
23303;BME280;11820;48.738;9.092;2022-12-07T06:41:37;96267.63;;;2.72;nan
23303;BME280;11820;48.738;9.092;2022-12-07T06:44:04;96270.53;;;2.77;nan
23303;BME280;11820;48.738;9.092;2022-12-07T06:46:30;96265.28;;;2.78;nan
23303;BME280;11820;48.738;9.092;2022-12-07T06:48:55;96264.84;;;2.65;nan
23303;BME280;11820;48.738;9.092;2022-12-07T06:51:20;96275.59;;;2.69;nan
23303;BME280;11820;48.738;9.092;2022-12-07T06:53:46;96276.13;;;2.63;nan
23303;BME280;11820;48.738;9.092;2022-12-07T06:56:11;96277.25;;;2.78;nan
23303;BME280;11820;48.738;9.092;2022-12-07T06:58:37;96271.69;;;2.65;nan
23303;BME280;11820;48.738;9.092;2022-12-07T07:01:02;96262.06;;;2.59;nan
23303;BME280;11820;48.738;9.092;2022-12-07T07:03:28;96255.16;;;2.69;nan
23303;BME280;11820;48.738;9.092;2022-12-07T07:05:53;96254.00;;;2.63;nan
23303;BME280;11820;48.738;9.092;2022-12-07T07:08:19;96259.22;;;2.62;nan
23303;BME280;11820;48.738;9.092;2022-12-07T07:10:44;96260.81;;;2.63;nan
23303;BME280;11820;48.738;9.092;2022-12-07T07:13:09;96264.44;;;2.70;nan
23303;BME280;11820;48.738;9.092;2022-12-07T07:15:38;96267.75;;;2.70;nan
23303;BME280;11820;48.738;9.092;2022-12-07T07:18:03;96270.31;;;2.70;nan
23303;BME280;11820;48.738;9.092;2022-12-07T07:20:29;96274.69;;;2.78;nan
23303;BME280;11820;48.738;9.092;2022-12-07T07:22:54;96283.53;;;2.83;nan
23303;BME280;11820;48.738;9.092;2022-12-07T07:25:20;96276.06;;;2.90;nan
23303;BME280;11820;48.738;9.092;2022-12-07T07:27:46;96278.56;;;2.82;nan
23303;BME280;11820;48.738;9.092;2022-12-07T07:30:11;96277.53;;;2.75;nan
23303;BME280;11820;48.738;9.092;2022-12-07T07:32:36;96276.00;;;2.82;nan
23303;BME280;11820;48.738;9.092;2022-12-07T07:35:02;96282.13;;;2.89;nan
23303;BME280;11820;48.738;9.092;2022-12-07T07:37:28;96280.88;;;2.93;nan
23303;BME280;11820;48.738;9.092;2022-12-07T07:39:53;96287.53;;;3.03;nan
23303;BME280;11820;48.738;9.092;2022-12-07T07:42:19;96287.53;;;3.03;nan
23303;BME280;11820;48.738;9.092;2022-12-07T07:44:44;96298.78;;;3.10;nan
23303;BME280;11820;48.738;9.092;2022-12-07T07:47:09;96292.56;;;3.13;nan
23303;BME280;11820;48.738;9.092;2022-12-07T07:49:35;96300.88;;;3.14;nan
23303;BME280;11820;48.738;9.092;2022-12-07T07:52:00;96292.84;;;3.10;nan
23303;BME280;11820;48.738;9.092;2022-12-07T07:54:25;96299.25;;;3.13;nan
23303;BME280;11820;48.738;9.092;2022-12-07T07:56:52;96301.09;;;3.04;nan
23303;BME280;11820;48.738;9.092;2022-12-07T07:59:17;96296.06;;;3.12;nan
23303;BME280;11820;48.738;9.092;2022-12-07T08:01:43;96302.28;;;3.09;nan
23303;BME280;11820;48.738;9.092;2022-12-07T08:04:08;96296.06;;;3.12;nan
23303;BME280;11820;48.738;9.092;2022-12-07T08:06:33;96303.81;;;3.19;nan
23303;BME280;11820;48.738;9.092;2022-12-07T08:08:59;96300.13;;;3.22;nan
23303;BME280;11820;48.738;9.092;2022-12-07T08:11:24;96302.78;;;3.13;nan
23303;BME280;11820;48.738;9.092;2022-12-07T08:13:50;96296.34;;;3.09;nan
23303;BME280;11820;48.738;9.092;2022-12-07T08:16:15;96305.84;;;3.16;nan
23303;BME280;11820;48.738;9.092;2022-12-07T08:18:42;96305.31;;;3.30;nan
23303;BME280;11820;48.738;9.092;2022-12-07T08:21:11;96314.94;;;3.36;nan
23303;BME280;11820;48.738;9.092;2022-12-07T08:23:37;96313.91;;;3.29;nan
23303;BME280;11820;48.738;9.092;2022-12-07T08:26:11;96309.03;;;3.35;nan
23303;BME280;11820;48.738;9.092;2022-12-07T08:28:37;96310.31;;;3.39;nan
23303;BME280;11820;48.738;9.092;2022-12-07T08:31:07;96319.75;;;3.39;nan
23303;BME280;11820;48.738;9.092;2022-12-07T08:33:35;96306.56;;;3.26;nan
23303;BME280;11820;48.738;9.092;2022-12-07T08:36:09;96313.66;;;3.32;nan
23303;BME280;11820;48.738;9.092;2022-12-07T08:38:36;96317.34;;;3.37;nan
23303;BME280;11820;48.738;9.092;2022-12-07T08:41:03;96319.38;;;3.51;nan
23303;BME280;11820;48.738;9.092;2022-12-07T08:43:28;96324.84;;;3.56;nan
23303;BME280;11820;48.738;9.092;2022-12-07T08:46:09;96328.78;;;3.51;nan
23303;BME280;11820;48.738;9.092;2022-12-07T08:48:41;96322.88;;;3.50;nan
23303;BME280;11820;48.738;9.092;2022-12-07T08:51:07;96318.47;;;3.60;nan
23303;BME280;11820;48.738;9.092;2022-12-07T08:53:34;96345.03;;;3.67;nan
23303;BME280;11820;48.738;9.092;2022-12-07T08:56:01;96326.44;;;3.57;nan
23303;BME280;11820;48.738;9.092;2022-12-07T08:58:26;96317.81;;;3.58;nan
23303;BME280;11820;48.738;9.092;2022-12-07T09:00:52;96318.78;;;3.57;nan
23303;BME280;11820;48.738;9.092;2022-12-07T09:03:17;96318.81;;;3.65;nan
23303;BME280;11820;48.738;9.092;2022-12-07T09:05:43;96325.09;;;3.71;nan
23303;BME280;11820;48.738;9.092;2022-12-07T09:08:09;96319.25;;;3.78;nan
23303;BME280;11820;48.738;9.092;2022-12-07T09:10:34;96317.97;;;3.82;nan
23303;BME280;11820;48.738;9.092;2022-12-07T09:12:59;96334.94;;;3.83;nan
23303;BME280;11820;48.738;9.092;2022-12-07T09:15:29;96314.91;;;3.79;nan
23303;BME280;11820;48.738;9.092;2022-12-07T09:17:55;96318.03;;;3.65;nan
23303;BME280;11820;48.738;9.092;2022-12-07T09:20:21;96320.81;;;3.71;nan
23303;BME280;11820;48.738;9.092;2022-12-07T09:22:46;96327.22;;;3.75;nan
23303;BME280;11820;48.738;9.092;2022-12-07T09:25:11;96320.50;;;3.74;nan
23303;BME280;11820;48.738;9.092;2022-12-07T09:27:37;96325.66;;;3.82;nan
23303;BME280;11820;48.738;9.092;2022-12-07T09:30:03;96317.63;;;3.77;nan
23303;BME280;11820;48.738;9.092;2022-12-07T09:32:29;96319.19;;;3.70;nan
23303;BME280;11820;48.738;9.092;2022-12-07T09:34:54;96311.47;;;3.88;nan
23303;BME280;11820;48.738;9.092;2022-12-07T09:37:20;96317.69;;;3.85;nan
23303;BME280;11820;48.738;9.092;2022-12-07T09:39:45;96319.94;;;3.88;nan
23303;BME280;11820;48.738;9.092;2022-12-07T09:42:25;96314.06;;;3.96;nan
23303;BME280;11820;48.738;9.092;2022-12-07T09:44:51;96309.59;;;3.98;nan
23303;BME280;11820;48.738;9.092;2022-12-07T09:47:16;96309.03;;;4.12;nan
23303;BME280;11820;48.738;9.092;2022-12-07T09:49:42;96301.19;;;4.13;nan
23303;BME280;11820;48.738;9.092;2022-12-07T09:54:35;96299.75;;;4.11;nan
23303;BME280;11820;48.738;9.092;2022-12-07T09:57:03;96302.34;;;4.19;nan
23303;BME280;11820;48.738;9.092;2022-12-07T09:59:28;96304.47;;;4.23;nan
23303;BME280;11820;48.738;9.092;2022-12-07T10:01:55;96295.13;;;4.14;nan
23303;BME280;11820;48.738;9.092;2022-12-07T10:04:24;96293.25;;;4.24;nan
23303;BME280;11820;48.738;9.092;2022-12-07T10:06:51;96301.53;;;4.18;nan
23303;BME280;11820;48.738;9.092;2022-12-07T10:09:19;96299.63;;;4.20;nan
23303;BME280;11820;48.738;9.092;2022-12-07T10:12:17;96291.25;;;4.52;nan
23303;BME280;11820;48.738;9.092;2022-12-07T10:15:00;96280.41;;;4.58;nan
23303;BME280;11820;48.738;9.092;2022-12-07T10:17:39;96272.13;;;4.64;nan
23303;BME280;11820;48.738;9.092;2022-12-07T10:20:16;96271.59;;;4.52;nan
23303;BME280;11820;48.738;9.092;2022-12-07T10:23:11;96271.75;;;4.51;nan
23303;BME280;11820;48.738;9.092;2022-12-07T10:25:39;96282.59;;;4.37;nan
23303;BME280;11820;48.738;9.092;2022-12-07T10:30:57;96270.00;;;4.51;nan
23303;BME280;11820;48.738;9.092;2022-12-07T10:33:37;96265.78;;;4.42;nan
23303;BME280;11820;48.738;9.092;2022-12-07T10:36:26;96266.13;;;4.39;nan
23303;BME280;11820;48.738;9.092;2022-12-07T10:41:23;96265.78;;;4.42;nan
23303;BME280;11820;48.738;9.092;2022-12-07T10:43:51;96273.84;;;4.47;nan
23303;BME280;11820;48.738;9.092;2022-12-07T10:54:29;96261.97;;;4.46;nan
23303;BME280;11820;48.738;9.092;2022-12-07T11:00:09;96263.44;;;4.57;nan
23303;BME280;11820;48.738;9.092;2022-12-07T11:05:51;96242.19;;;4.72;nan
23303;BME280;11820;48.738;9.092;2022-12-07T11:11:42;96242.34;;;4.78;nan
23303;BME280;11820;48.738;9.092;2022-12-07T11:14:24;96233.72;;;4.72;nan
23303;BME280;11820;48.738;9.092;2022-12-07T11:23:03;96227.63;;;4.72;nan
23303;BME280;11820;48.738;9.092;2022-12-07T11:28:25;96232.88;;;4.63;nan
23303;BME280;11820;48.738;9.092;2022-12-07T11:31:08;96260.09;;;4.64;nan
23303;BME280;11820;48.738;9.092;2022-12-07T11:34:10;96224.56;;;4.69;nan
23303;BME280;11820;48.738;9.092;2022-12-07T11:36:46;96217.72;;;4.70;nan
23303;BME280;11820;48.738;9.092;2022-12-07T11:39:33;96213.69;;;4.67;nan
23303;BME280;11820;48.738;9.092;2022-12-07T11:42:06;96216.75;;;4.63;nan
23303;BME280;11820;48.738;9.092;2022-12-07T11:44:53;96215.59;;;4.57;nan
23303;BME280;11820;48.738;9.092;2022-12-07T11:49:54;96199.00;;;4.77;nan
23303;BME280;11820;48.738;9.092;2022-12-07T11:55:21;96198.19;;;4.76;nan
23303;BME280;11820;48.738;9.092;2022-12-07T11:57:53;96193.69;;;4.71;nan
23303;BME280;11820;48.738;9.092;2022-12-07T12:00:21;96187.28;;;4.74;nan
23303;BME280;11820;48.738;9.092;2022-12-07T12:02:54;96190.97;;;4.72;nan
23303;BME280;11820;48.738;9.092;2022-12-07T12:05:24;96195.44;;;4.62;nan
23303;BME280;11820;48.738;9.092;2022-12-07T12:07:59;96193.06;;;4.61;nan
23303;BME280;11820;48.738;9.092;2022-12-07T12:11:03;96188.09;;;4.59;nan
23303;BME280;11820;48.738;9.092;2022-12-07T12:14:05;96181.06;;;4.61;nan
23303;BME280;11820;48.738;9.092;2022-12-07T12:19:27;96185.22;;;4.54;nan
23303;BME280;11820;48.738;9.092;2022-12-07T12:22:03;96182.63;;;4.46;nan
23303;BME280;11820;48.738;9.092;2022-12-07T12:24:32;96179.91;;;4.40;nan
23303;BME280;11820;48.738;9.092;2022-12-07T12:27:07;96175.56;;;4.40;nan
23303;BME280;11820;48.738;9.092;2022-12-07T12:29:39;96181.69;;;4.47;nan
23303;BME280;11820;48.738;9.092;2022-12-07T12:32:15;96173.69;;;4.66;nan
23303;BME280;11820;48.738;9.092;2022-12-07T12:35:02;96169.69;;;4.72;nan
23303;BME280;11820;48.738;9.092;2022-12-07T12:42:50;96167.72;;;4.26;nan
23303;BME280;11820;48.738;9.092;2022-12-07T12:50:49;96163.09;;;4.37;nan
23303;BME280;11820;48.738;9.092;2022-12-07T12:53:34;96161.69;;;4.35;nan
23303;BME280;11820;48.738;9.092;2022-12-07T12:59:35;96161.50;;;4.28;nan
23303;BME280;11820;48.738;9.092;2022-12-07T13:02:24;96158.78;;;4.46;nan
23303;BME280;11820;48.738;9.092;2022-12-07T13:04:57;96162.16;;;4.38;nan
23303;BME280;11820;48.738;9.092;2022-12-07T13:13:02;96151.63;;;4.73;nan
23303;BME280;11820;48.738;9.092;2022-12-07T13:20:44;96145.19;;;4.45;nan
23303;BME280;11820;48.738;9.092;2022-12-07T13:23:10;96143.44;;;4.54;nan
23303;BME280;11820;48.738;9.092;2022-12-07T13:25:40;96135.44;;;4.57;nan
23303;BME280;11820;48.738;9.092;2022-12-07T13:28:33;96135.47;;;4.65;nan
23303;BME280;11820;48.738;9.092;2022-12-07T13:31:03;96135.28;;;4.50;nan
23303;BME280;11820;48.738;9.092;2022-12-07T13:33:29;96134.31;;;4.67;nan
23303;BME280;11820;48.738;9.092;2022-12-07T13:35:55;96138.81;;;4.73;nan
23303;BME280;11820;48.738;9.092;2022-12-07T13:38:35;96141.06;;;4.76;nan
23303;BME280;11820;48.738;9.092;2022-12-07T13:41:16;96135.59;;;4.71;nan
23303;BME280;11820;48.738;9.092;2022-12-07T13:43:54;96133.06;;;4.55;nan
23303;BME280;11820;48.738;9.092;2022-12-07T13:46:57;96133.22;;;4.62;nan
23303;BME280;11820;48.738;9.092;2022-12-07T13:49:28;96139.13;;;4.62;nan
23303;BME280;11820;48.738;9.092;2022-12-07T13:51:54;96175.59;;;4.56;nan
23303;BME280;11820;48.738;9.092;2022-12-07T13:54:31;96131.44;;;4.54;nan
23303;BME280;11820;48.738;9.092;2022-12-07T13:56:56;96137.81;;;4.42;nan
23303;BME280;11820;48.738;9.092;2022-12-07T13:59:24;96131.25;;;4.32;nan
23303;BME280;11820;48.738;9.092;2022-12-07T14:01:51;96131.78;;;4.51;nan
23303;BME280;11820;48.738;9.092;2022-12-07T14:04:29;96132.72;;;4.58;nan
23303;BME280;11820;48.738;9.092;2022-12-07T14:06:55;96127.94;;;4.55;nan
23303;BME280;11820;48.738;9.092;2022-12-07T14:09:25;96130.78;;;4.44;nan
23303;BME280;11820;48.738;9.092;2022-12-07T14:11:56;96137.69;;;4.36;nan
23303;BME280;11820;48.738;9.092;2022-12-07T14:14:27;96129.19;;;4.43;nan
23303;BME280;11820;48.738;9.092;2022-12-07T14:16:57;96126.16;;;4.48;nan
23303;BME280;11820;48.738;9.092;2022-12-07T14:24:48;96130.16;;;4.42;nan
23303;BME280;11820;48.738;9.092;2022-12-07T14:27:21;96128.56;;;4.41;nan
23303;BME280;11820;48.738;9.092;2022-12-07T14:29:47;96161.81;;;4.41;nan
23303;BME280;11820;48.738;9.092;2022-12-07T14:32:22;96120.41;;;4.38;nan
23303;BME280;11820;48.738;9.092;2022-12-07T14:37:28;96127.75;;;4.25;nan
23303;BME280;11820;48.738;9.092;2022-12-07T14:39:55;96125.69;;;4.28;nan
23303;BME280;11820;48.738;9.092;2022-12-07T14:42:23;96134.00;;;4.30;nan
23303;BME280;11820;48.738;9.092;2022-12-07T14:44:49;96129.19;;;4.27;nan
23303;BME280;11820;48.738;9.092;2022-12-07T14:47:14;96136.88;;;4.27;nan
23303;BME280;11820;48.738;9.092;2022-12-07T14:49:40;96134.94;;;4.21;nan
23303;BME280;11820;48.738;9.092;2022-12-07T14:52:11;96133.66;;;4.25;nan
23303;BME280;11820;48.738;9.092;2022-12-07T14:54:38;96136.84;;;4.19;nan
23303;BME280;11820;48.738;9.092;2022-12-07T14:57:03;96129.16;;;4.11;nan
23303;BME280;11820;48.738;9.092;2022-12-07T14:59:29;96138.75;;;4.09;nan
23303;BME280;11820;48.738;9.092;2022-12-07T15:01:54;96135.22;;;4.10;nan
23303;BME280;11820;48.738;9.092;2022-12-07T15:04:19;96134.59;;;4.16;nan
23303;BME280;11820;48.738;9.092;2022-12-07T15:06:56;96128.19;;;4.12;nan
23303;BME280;11820;48.738;9.092;2022-12-07T15:09:22;96134.28;;;4.11;nan
23303;BME280;11820;48.738;9.092;2022-12-07T15:11:47;96128.19;;;4.04;nan
23303;BME280;11820;48.738;9.092;2022-12-07T15:14:12;96133.31;;;4.04;nan
23303;BME280;11820;48.738;9.092;2022-12-07T15:16:40;96125.97;;;4.09;nan
23303;BME280;11820;48.738;9.092;2022-12-07T15:19:11;96138.44;;;4.04;nan